Time;durP1;ratioP1;P1;durP2;ratioP2;P2;SDS_P1;SDS_P2;PMS_P1;PMS_P2;Temp;Humidity;BMP_temperature;BMP_pressure;BME280_temperature;BME280_humidity;BME280_pressure;Samples;Min_cycle;Max_cycle;Signal;HPM_P1;HPM_P2
2023/09/21 00:01:15;;;;;;;5.00;2.70;;;;;;;14.49;83.69;100019.58;105524;1257;74015;-67
2023/09/21 00:03:44;;;;;;;6.70;3.10;;;;;;;14.49;83.80;100022.02;105491;1253;83481;-67
2023/09/21 00:06:17;;;;;;;5.10;3.20;;;;;;;14.49;83.80;100018.00;105512;1259;72677;-67
2023/09/21 00:08:48;;;;;;;6.10;3.00;;;;;;;14.45;83.72;100019.08;105473;1257;69171;-67
2023/09/21 00:11:18;;;;;;;4.20;2.80;;;;;;;14.42;83.98;100014.18;105462;1259;69251;-67
2023/09/21 00:13:47;;;;;;;5.80;3.10;;;;;;;14.39;83.60;100015.76;105532;1258;72085;-67
2023/09/21 00:16:18;;;;;;;5.70;3.20;;;;;;;14.33;83.79;100013.02;105529;1256;83378;-67
2023/09/21 00:18:47;;;;;;;4.80;2.70;;;;;;;14.27;83.69;100013.84;105476;1256;72596;-67
2023/09/21 00:21:16;;;;;;;5.70;2.90;;;;;;;14.21;83.72;100009.29;105529;1253;69185;-67
2023/09/21 00:23:47;;;;;;;5.80;3.30;;;;;;;14.13;83.56;100002.73;105421;1259;69095;-67
2023/09/21 00:26:16;;;;;;;6.60;3.40;;;;;;;14.05;83.72;100002.27;105483;1257;74192;-67
2023/09/21 00:28:46;;;;;;;4.60;2.90;;;;;;;13.99;83.78;100001.41;105481;1257;82581;-67
2023/09/21 00:31:15;;;;;;;3.90;2.70;;;;;;;13.92;83.83;99999.55;105505;1259;72498;-67
2023/09/21 00:33:43;;;;;;;3.60;2.60;;;;;;;13.87;84.29;99993.67;105474;1255;69143;-67
2023/09/21 00:36:17;;;;;;;4.50;3.30;;;;;;;13.84;84.28;99993.48;105466;1258;69204;-67
2023/09/21 00:38:46;;;;;;;5.00;3.10;;;;;;;13.78;84.39;99995.02;105482;1257;72991;-67
2023/09/21 00:41:17;;;;;;;4.90;2.80;;;;;;;13.74;84.50;99991.60;105534;1257;82480;-66
2023/09/21 00:43:46;;;;;;;5.20;3.00;;;;;;;13.67;84.40;99992.34;105483;1253;72722;-67
2023/09/21 00:46:15;;;;;;;6.70;3.70;;;;;;;13.59;84.35;99996.83;105495;1257;69195;-67
2023/09/21 00:48:43;;;;;;;5.70;3.30;;;;;;;13.53;84.57;100000.67;105552;1259;69181;-67
2023/09/21 00:51:13;;;;;;;7.20;3.40;;;;;;;13.50;84.99;100000.17;105338;1259;73935;-67
2023/09/21 00:53:44;;;;;;;5.10;3.60;;;;;;;13.46;84.92;99998.44;105302;1254;83489;-67
2023/09/21 00:56:17;;;;;;;8.60;5.20;;;;;;;13.43;85.02;99995.82;105506;1257;72510;-67
2023/09/21 00:58:48;;;;;;;7.20;5.30;;;;;;;13.41;85.38;99992.60;105453;1259;69165;-67
2023/09/21 01:01:23;;;;;;;7.20;4.10;;;;;;;13.37;85.33;99988.44;105487;1254;69092;-67
2023/09/21 01:03:53;;;;;;;7.00;4.00;;;;;;;13.34;85.43;99988.59;105295;1258;72549;-69
2023/09/21 01:06:23;;;;;;;6.40;4.00;;;;;;;13.29;85.37;99989.88;105295;1257;83517;-69
2023/09/21 01:08:52;;;;;;;6.10;3.40;;;;;;;13.24;85.49;99986.98;105495;1257;73389;-69
2023/09/21 01:11:21;;;;;;;8.10;3.60;;;;;;;13.17;85.45;99979.95;105488;1258;69100;-69
2023/09/21 01:13:49;;;;;;;4.10;3.10;;;;;;;13.13;85.49;99976.00;105311;1259;69233;-69
2023/09/21 01:16:18;;;;;;;5.00;2.70;;;;;;;13.07;85.66;99976.66;105487;1257;73037;-69
2023/09/21 01:18:52;;;;;;;5.00;3.40;;;;;;;13.03;85.76;99970.23;105469;1257;81597;-69
2023/09/21 01:21:42;;;;;;;5.30;3.30;;;;;;;13.00;85.97;99968.84;105493;1256;72361;-69
2023/09/21 01:24:11;;;;;;;4.70;3.10;;;;;;;12.96;86.10;99966.92;105259;1258;69225;-69
2023/09/21 01:26:40;;;;;;;4.50;3.40;;;;;;;12.91;86.22;99966.50;105288;1260;69189;-69
2023/09/21 01:29:09;;;;;;;3.30;2.70;;;;;;;12.87;86.14;99962.14;105424;1257;73032;-69
2023/09/21 01:31:39;;;;;;;4.00;3.00;;;;;;;12.85;86.60;99962.76;105505;1259;83318;-68
2023/09/21 01:34:09;;;;;;;4.10;2.70;;;;;;;12.83;86.63;99960.95;105455;1265;72030;-69
2023/09/21 01:36:38;;;;;;;3.80;2.90;;;;;;;12.82;86.89;99963.98;105416;1258;69236;-69
2023/09/21 01:39:09;;;;;;;5.40;3.20;;;;;;;12.79;86.75;99957.63;105516;1253;69097;-69
2023/09/21 01:41:37;;;;;;;4.90;3.10;;;;;;;12.76;87.01;99953.80;105468;1257;72979;-69
2023/09/21 01:44:06;;;;;;;4.90;3.00;;;;;;;12.72;86.96;99945.05;105468;1257;81634;-69
2023/09/21 01:46:34;;;;;;;5.10;3.20;;;;;;;12.68;86.95;99938.59;105491;1258;74021;-69
2023/09/21 01:49:03;;;;;;;5.70;2.90;;;;;;;12.65;87.11;99936.14;105542;1259;69221;-69
2023/09/21 01:51:32;;;;;;;4.40;2.90;;;;;;;12.65;87.58;99934.19;105517;1258;69528;-69
2023/09/21 01:54:00;;;;;;;6.60;3.00;;;;;;;12.69;87.70;99932.06;105537;1257;72939;-69
2023/09/21 01:56:29;;;;;;;5.20;3.20;;;;;;;12.67;87.63;99932.36;105478;1257;83169;-69
2023/09/21 01:58:58;;;;;;;6.70;2.90;;;;;;;12.64;87.67;99932.50;105451;1257;73987;-69
2023/09/21 02:01:26;;;;;;;2.80;2.50;;;;;;;12.62;87.63;99930.70;105465;1254;69320;-69
2023/09/21 02:03:56;;;;;;;5.40;2.80;;;;;;;12.58;87.60;99925.10;105429;1258;69220;-69
2023/09/21 02:06:25;;;;;;;6.20;2.90;;;;;;;12.57;87.81;99924.45;105470;1260;74017;-69
2023/09/21 02:08:53;;;;;;;4.40;3.20;;;;;;;12.56;88.02;99921.17;105472;1258;83668;-69
2023/09/21 02:11:22;;;;;;;4.20;3.10;;;;;;;12.57;88.17;99922.73;105486;1254;73775;-69
2023/09/21 02:13:52;;;;;;;4.90;2.80;;;;;;;12.55;88.13;99918.79;105507;1262;69853;-69
2023/09/21 02:16:22;;;;;;;8.20;3.10;;;;;;;12.53;88.27;99914.38;105387;1259;69044;-69
2023/09/21 02:18:52;;;;;;;5.00;3.40;;;;;;;12.55;89.30;99908.98;105489;1257;72916;-69
2023/09/21 02:21:21;;;;;;;5.60;3.40;;;;;;;12.59;89.09;99906.85;105480;1255;83623;-69
2023/09/21 02:23:49;;;;;;;4.10;3.20;;;;;;;12.62;89.24;99903.86;105428;1257;74028;-68
2023/09/21 02:26:19;;;;;;;6.60;3.40;;;;;;;12.62;89.14;99901.94;105402;1257;69204;-68
2023/09/21 02:28:48;;;;;;;4.60;2.60;;;;;;;12.60;88.74;99901.35;105492;1253;69097;-69
2023/09/21 02:31:16;;;;;;;4.00;3.10;;;;;;;12.57;88.89;99901.16;105499;1257;73061;-68
2023/09/21 02:33:45;;;;;;;5.50;2.80;;;;;;;12.55;88.91;99896.55;105514;1253;83683;-69
2023/09/21 02:36:19;;;;;;;4.10;3.00;;;;;;;12.54;88.91;99892.58;105506;1255;73881;-68
2023/09/21 02:38:48;;;;;;;3.30;2.90;;;;;;;12.52;88.87;99891.45;105473;1256;68995;-68
2023/09/21 02:41:17;;;;;;;4.10;3.20;;;;;;;12.48;88.81;99892.18;105480;1264;69035;-68
2023/09/21 02:43:46;;;;;;;4.90;2.80;;;;;;;12.46;88.85;99885.80;105497;1258;73919;-68
2023/09/21 02:46:15;;;;;;;3.60;2.70;;;;;;;12.45;89.19;99889.14;105473;1259;83387;-68
2023/09/21 02:48:43;;;;;;;4.10;2.90;;;;;;;12.46;89.11;99885.24;105441;1258;72665;-68
2023/09/21 02:51:13;;;;;;;8.50;3.10;;;;;;;12.45;89.11;99882.87;105282;1259;69199;-69
2023/09/21 02:53:42;;;;;;;4.10;2.70;;;;;;;12.42;89.21;99880.05;105513;1258;69189;-68
2023/09/21 02:56:11;;;;;;;4.00;2.80;;;;;;;12.40;89.25;99875.43;105295;1257;73155;-68
2023/09/21 02:58:40;;;;;;;5.20;3.10;;;;;;;12.38;89.40;99872.22;105211;1260;83472;-68
2023/09/21 03:01:10;;;;;;;5.20;2.60;;;;;;;12.38;89.32;99873.79;105463;1258;73866;-68
2023/09/21 03:03:38;;;;;;;3.80;2.60;;;;;;;12.34;89.31;99878.52;105289;1254;69187;-69
2023/09/21 03:06:07;;;;;;;5.20;3.00;;;;;;;12.34;89.53;99868.91;105281;1259;69357;-69
2023/09/21 03:08:38;;;;;;;3.50;2.90;;;;;;;12.35;89.65;99867.80;105479;1259;72382;-69
2023/09/21 03:11:09;;;;;;;5.60;3.20;;;;;;;12.32;89.77;99862.34;105454;1258;83339;-68
2023/09/21 03:13:38;;;;;;;6.00;2.90;;;;;;;12.32;89.94;99863.76;105410;1257;73676;-68
2023/09/21 03:16:12;;;;;;;5.10;2.80;;;;;;;12.32;89.87;99866.02;105498;1259;69128;-68
2023/09/21 03:18:41;;;;;;;4.60;2.40;;;;;;;12.28;89.42;99864.33;105285;1259;69211;-69
2023/09/21 03:21:15;;;;;;;4.50;3.00;;;;;;;12.23;89.63;99864.55;105266;1258;74188;-68
2023/09/21 03:23:47;;;;;;;5.50;3.00;;;;;;;12.22;89.69;99862.18;105454;1255;82629;-68
2023/09/21 03:26:18;;;;;;;4.30;2.50;;;;;;;12.22;89.82;99859.20;105456;1255;73916;-68
2023/09/21 03:28:48;;;;;;;4.50;2.80;;;;;;;12.21;89.78;99852.59;105430;1254;69189;-68
2023/09/21 03:31:18;;;;;;;3.10;2.70;;;;;;;12.18;89.74;99853.77;105442;1254;69177;-68
2023/09/21 03:33:47;;;;;;;3.60;2.40;;;;;;;12.16;89.90;99853.39;105486;1258;72523;-69
2023/09/21 03:36:17;;;;;;;2.60;2.30;;;;;;;12.14;90.08;99849.80;105515;1254;82873;-68
2023/09/21 03:38:47;;;;;;;4.00;2.70;;;;;;;12.17;90.26;99845.66;105466;1259;73906;-69
2023/09/21 03:41:16;;;;;;;4.00;2.50;;;;;;;12.15;90.03;99844.17;105456;1258;69209;-69
2023/09/21 03:43:44;;;;;;;3.30;2.70;;;;;;;12.11;90.06;99839.45;105457;1254;69126;-69
2023/09/21 03:46:13;;;;;;;4.70;2.90;;;;;;;12.09;89.97;99840.46;105421;1257;72198;-68
2023/09/21 03:48:43;;;;;;;3.80;2.70;;;;;;;12.06;90.11;99841.47;105419;1257;83412;-66
2023/09/21 03:51:13;;;;;;;5.60;3.00;;;;;;;12.05;90.66;99838.54;105445;1257;72854;-67
2023/09/21 03:53:42;;;;;;;3.90;2.80;;;;;;;12.10;90.85;99832.52;105474;1254;69102;-67
2023/09/21 03:56:10;;;;;;;4.20;2.80;;;;;;;12.11;90.74;99824.92;105328;1257;69189;-67
2023/09/21 03:58:39;;;;;;;5.20;3.00;;;;;;;12.09;90.56;99827.65;105408;1260;73882;-67
2023/09/21 04:01:09;;;;;;;3.50;2.80;;;;;;;12.08;90.69;99822.98;105539;1254;81890;-67
2023/09/21 04:03:38;;;;;;;;;;;;;;;12.06;90.71;99821.86;105501;1257;73671;-67
2023/09/21 04:06:06;;;;;;;5.00;2.50;;;;;;;12.03;90.74;99826.02;105273;1255;69180;-67
2023/09/21 04:08:35;;;;;;;4.20;3.10;;;;;;;12.02;90.73;99822.23;105457;1257;69142;-67
2023/09/21 04:11:03;;;;;;;4.70;3.20;;;;;;;12.02;90.92;99824.67;105378;1259;74252;-67
2023/09/21 04:13:32;;;;;;;5.50;2.90;;;;;;;12.03;91.35;99824.48;105463;1257;82194;-67
2023/09/21 04:16:05;;;;;;;3.30;2.70;;;;;;;12.03;91.43;99823.21;105472;1257;74082;-67
2023/09/21 04:18:34;;;;;;;4.90;3.00;;;;;;;12.01;91.19;99819.32;105464;1258;69209;-67
2023/09/21 04:21:07;;;;;;;6.20;3.20;;;;;;;12.00;91.36;99820.77;105360;1254;69194;-67
2023/09/21 04:23:48;;;;;;;4.90;2.80;;;;;;;12.02;91.72;99817.70;105485;1254;73786;-66
2023/09/21 04:26:17;;;;;;;3.60;2.60;;;;;;;12.06;92.26;99813.64;105461;1257;83366;-66
2023/09/21 04:28:49;;;;;;;3.60;2.70;;;;;;;12.16;92.98;99809.09;105476;1254;74002;-66
2023/09/21 04:31:19;;;;;;;5.10;2.60;;;;;;;12.22;92.51;99808.20;105408;1266;69193;-66
2023/09/21 04:33:48;;;;;;;2.90;2.30;;;;;;;12.21;91.99;99801.77;105279;1259;69176;-66
2023/09/21 04:36:16;;;;;;;3.80;2.60;;;;;;;12.18;91.86;99800.73;105513;1256;74212;-66
2023/09/21 04:38:48;;;;;;;3.30;2.00;;;;;;;12.17;91.88;99799.06;105441;1254;82573;-66
2023/09/21 04:41:17;;;;;;;3.90;2.70;;;;;;;12.16;91.66;99796.45;105431;1258;73758;-66
2023/09/21 04:43:45;;;;;;;2.80;2.30;;;;;;;12.14;91.66;99797.25;105267;1257;69190;-66
2023/09/21 04:46:14;;;;;;;3.60;2.70;;;;;;;12.14;92.05;99797.07;105484;1255;69089;-67
2023/09/21 04:48:43;;;;;;;2.90;2.50;;;;;;;12.17;92.46;99799.94;105496;1255;72981;-66
2023/09/21 04:51:14;;;;;;;4.10;2.80;;;;;;;12.19;92.33;99797.55;105419;1257;83415;-66
2023/09/21 04:53:45;;;;;;;8.30;2.80;;;;;;;12.23;92.96;99796.09;105409;1257;71784;-66
2023/09/21 04:56:14;;;;;;;5.50;2.70;;;;;;;12.31;92.92;99799.34;105362;1254;69221;-66
2023/09/21 04:58:42;;;;;;;3.50;2.50;;;;;;;12.29;92.65;99800.52;105464;1254;69104;-66
2023/09/21 05:01:12;;;;;;;4.90;2.80;;;;;;;12.28;92.31;99800.86;105494;1254;72968;-66
2023/09/21 05:03:42;;;;;;;3.30;2.50;;;;;;;12.29;92.44;99799.10;105646;1254;82517;-66
2023/09/21 05:06:10;;;;;;;3.90;2.70;;;;;;;12.28;92.40;99799.85;105454;1258;73104;-71
2023/09/21 05:08:39;;;;;;;6.00;2.50;;;;;;;12.32;92.87;99799.98;105757;1256;69656;-68
2023/09/21 05:11:07;;;;;;;2.80;2.40;;;;;;;12.33;92.72;99797.81;105534;1257;69119;-70
2023/09/21 05:13:36;;;;;;;3.80;2.40;;;;;;;12.36;92.74;99802.23;105622;1257;73826;-66
2023/09/21 05:16:07;;;;;;;3.10;2.40;;;;;;;12.38;92.94;99799.69;105677;1254;83378;-66
2023/09/21 05:18:35;;;;;;;4.70;2.50;;;;;;;12.41;93.00;99799.67;105384;1257;71943;-66
2023/09/21 05:21:04;;;;;;;3.70;3.00;;;;;;;12.44;93.14;99801.09;105371;1259;69084;-68
2023/09/21 05:23:33;;;;;;;3.70;2.80;;;;;;;12.49;93.53;99797.52;105544;1254;69185;-67
2023/09/21 05:26:03;;;;;;;6.20;2.80;;;;;;;12.57;93.96;99797.39;106400;1256;72834;-66
2023/09/21 05:28:31;;;;;;;4.00;2.80;;;;;;;12.61;93.84;99797.38;105557;1254;81558;-66
2023/09/21 05:31:00;;;;;;;3.30;2.50;;;;;;;12.67;94.40;99799.64;105720;1255;73847;-66
2023/09/21 05:33:29;;;;;;;5.50;3.00;;;;;;;12.79;94.79;99794.45;105890;1254;69198;-66
2023/09/21 05:35:58;;;;;;;4.60;2.80;;;;;;;12.87;94.88;99790.98;105861;1256;69189;-65
2023/09/21 05:38:27;;;;;;;4.20;2.90;;;;;;;12.96;94.82;99792.08;105713;1254;74304;-66
2023/09/21 05:40:55;;;;;;;4.10;2.70;;;;;;;13.03;95.02;99789.42;105867;1255;83260;-66
2023/09/21 05:43:23;;;;;;;4.20;3.10;;;;;;;13.11;95.25;99784.35;105781;1254;73686;-66
2023/09/21 05:45:55;;;;;;;4.00;3.00;;;;;;;13.22;95.60;99782.49;105549;1256;69148;-66
2023/09/21 05:48:23;;;;;;;4.10;3.20;;;;;;;13.37;96.37;99781.99;105736;1254;69180;-66
2023/09/21 05:50:53;;;;;;;4.50;3.00;;;;;;;13.54;96.69;99785.63;105835;1255;73472;-65
2023/09/21 05:53:22;;;;;;;5.30;2.70;;;;;;;13.70;97.00;99782.52;105659;1254;83403;-65
2023/09/21 05:55:51;;;;;;;7.30;2.80;;;;;;;13.85;97.20;99778.30;105584;1252;73897;-68
2023/09/21 05:58:19;;;;;;;4.40;2.90;;;;;;;13.98;97.11;99776.28;105707;1256;69163;-66
2023/09/21 06:00:48;;;;;;;4.80;2.90;;;;;;;14.11;97.04;99779.73;105595;1254;69525;-67
2023/09/21 06:03:17;;;;;;;4.10;2.80;;;;;;;14.23;97.13;99779.33;105766;1254;73078;-67
2023/09/21 06:05:46;;;;;;;6.50;2.90;;;;;;;14.35;97.20;99774.33;105636;1257;83682;-67
2023/09/21 06:08:14;;;;;;;5.30;2.80;;;;;;;14.49;97.22;99770.12;105580;1257;73762;-66
2023/09/21 06:10:43;;;;;;;6.70;2.70;;;;;;;14.63;97.38;99774.73;105616;1254;69163;-67
2023/09/21 06:13:12;;;;;;;4.30;3.00;;;;;;;14.76;97.25;99780.55;105602;1254;69032;-67
2023/09/21 06:15:47;;;;;;;3.20;2.70;;;;;;;14.88;97.25;99774.36;105708;1256;73982;-66
2023/09/21 06:18:17;;;;;;;4.90;2.70;;;;;;;15.01;97.32;99773.13;105675;1252;82392;-66
2023/09/21 06:20:45;;;;;;;4.00;2.90;;;;;;;15.13;97.32;99772.19;105629;1254;72871;-66
2023/09/21 06:23:17;;;;;;;3.70;2.80;;;;;;;15.26;97.35;99771.54;105372;1254;299021;-66
2023/09/21 06:25:46;;;;;;;6.00;2.80;;;;;;;15.37;97.25;99773.20;105635;1257;69736;-65
2023/09/21 06:28:15;;;;;;;6.10;2.70;;;;;;;15.51;97.34;99775.47;105707;1256;72466;-67
2023/09/21 06:30:47;;;;;;;5.40;2.90;;;;;;;15.65;97.35;99771.57;105702;1253;83335;-66
2023/09/21 06:33:15;;;;;;;5.60;3.30;;;;;;;15.78;97.37;99769.57;105566;1257;74059;-62
2023/09/21 06:35:44;;;;;;;3.10;2.50;;;;;;;15.92;97.32;99765.85;105630;1256;69214;-65
2023/09/21 06:38:12;;;;;;;8.40;3.20;;;;;;;16.06;97.28;99767.48;105672;1257;69176;-65
2023/09/21 06:40:44;;;;;;;4.30;2.60;;;;;;;16.20;97.17;99764.94;105651;1255;73002;-64
2023/09/21 06:43:12;;;;;;;5.30;3.20;;;;;;;16.33;96.98;99765.45;105542;1253;83383;-65
2023/09/21 06:45:41;;;;;;;3.80;2.60;;;;;;;16.45;96.85;99763.86;105702;1254;73841;-64
2023/09/21 06:48:11;;;;;;;3.60;2.70;;;;;;;16.58;96.62;99761.91;105667;1254;69212;-65
2023/09/21 06:50:40;;;;;;;4.80;2.80;;;;;;;16.70;96.64;99765.38;105703;1254;69154;-65
2023/09/21 06:53:08;;;;;;;5.40;2.60;;;;;;;16.83;96.48;99760.27;105746;1254;72985;-65
2023/09/21 06:55:37;;;;;;;6.30;2.80;;;;;;;16.95;96.30;99765.42;105696;1253;81541;-65
2023/09/21 06:58:08;;;;;;;6.10;2.60;;;;;;;17.07;96.08;99760.95;105639;1254;73341;-65
2023/09/21 07:00:37;;;;;;;5.30;3.10;;;;;;;17.20;96.02;99760.89;105573;1254;69710;-65
2023/09/21 07:03:05;;;;;;;4.50;2.60;;;;;;;17.33;95.74;99757.78;105486;1254;69703;-64
2023/09/21 07:05:34;;;;;;;3.40;2.40;;;;;;;17.46;95.57;99754.16;105816;1256;72965;-65
2023/09/21 07:08:03;;;;;;;5.80;2.60;;;;;;;17.59;95.54;99751.94;105715;1256;83258;-65
2023/09/21 07:10:32;;;;;;;5.80;2.90;;;;;;;17.73;95.60;99745.38;105751;1256;72869;-65
2023/09/21 07:13:00;;;;;;;3.60;2.60;;;;;;;17.90;95.46;99742.70;105670;1254;69317;-65
2023/09/21 07:15:29;;;;;;;3.50;2.40;;;;;;;18.05;95.26;99743.45;105640;1254;69066;-64
2023/09/21 07:17:58;;;;;;;4.40;2.50;;;;;;;18.21;95.09;99736.70;105641;1253;72981;-64
2023/09/21 07:20:27;;;;;;;9.90;2.90;;;;;;;18.38;94.84;99734.84;105632;1256;83092;-61
2023/09/21 07:22:56;;;;;;;6.70;2.50;;;;;;;18.55;94.43;99735.95;105523;1257;73734;-64
2023/09/21 07:25:25;;;;;;;3.70;2.60;;;;;;;18.73;94.01;99737.71;105614;1255;69080;-64
2023/09/21 07:27:54;;;;;;;;;;;;;;;18.89;93.53;99738.35;105714;1254;67773;-65
2023/09/21 07:30:25;;;;;;;9.80;3.20;;;;;;;19.04;93.08;99738.34;105771;1252;74002;-66
2023/09/21 07:32:55;;;;;;;6.50;2.80;;;;;;;19.20;92.72;99741.42;105773;1252;83590;-64
2023/09/21 07:35:23;;;;;;;;;;;;;;;19.39;92.39;99744.14;105691;1254;73824;-64
2023/09/21 07:37:52;;;;;;;4.50;2.30;;;;;;;19.55;91.52;99743.80;105577;1256;69173;-63
2023/09/21 07:40:21;;;;;;;4.30;2.50;;;;;;;19.68;90.94;99741.19;105622;1253;69153;-64
2023/09/21 07:42:51;;;;;;;5.10;2.20;;;;;;;19.81;90.32;99741.80;105767;1257;73923;-64
2023/09/21 07:45:22;;;;;;;6.50;2.90;;;;;;;19.94;89.71;99738.91;105682;1256;82420;-64
2023/09/21 07:47:52;;;;;;;7.30;2.60;;;;;;;20.06;89.09;99735.36;105679;1254;73591;-64
2023/09/21 07:50:23;;;;;;;5.70;2.20;;;;;;;20.19;88.71;99733.66;105646;1253;69181;-65
2023/09/21 07:52:56;;;;;;;8.20;2.60;;;;;;;20.31;88.00;99728.61;105557;1257;69218;-64
2023/09/21 07:55:25;;;;;;;7.80;2.80;;;;;;;20.40;87.52;99723.35;105567;1254;72967;-64
2023/09/21 07:57:53;;;;;;;10.30;3.20;;;;;;;20.51;86.97;99721.50;105657;1258;83624;-63
2023/09/21 08:00:22;;;;;;;5.20;2.20;;;;;;;20.60;86.29;99717.15;109195;1252;73353;-62
2023/09/21 08:02:50;;;;;;;7.40;2.30;;;;;;;20.68;85.58;99718.04;106097;1252;69174;-62
2023/09/21 08:05:19;;;;;;;11.30;4.40;;;;;;;20.76;85.08;99720.00;106338;1252;69183;-61
2023/09/21 08:07:49;;;;;;;6.60;3.00;;;;;;;20.84;84.72;99719.91;107615;1255;74246;-61
2023/09/21 08:10:19;;;;;;;6.60;3.10;;;;;;;20.94;84.33;99719.19;106462;1254;82486;-61
2023/09/21 08:12:48;;;;;;;5.60;3.80;;;;;;;21.03;83.72;99718.44;105571;1254;73371;-63
2023/09/21 08:15:19;;;;;;;9.10;2.60;;;;;;;21.10;83.21;99717.93;105678;1257;69833;-64
2023/09/21 08:17:47;;;;;;;11.10;2.40;;;;;;;21.18;82.78;99718.98;105758;1253;69039;-64
2023/09/21 08:20:16;;;;;;;6.30;2.80;;;;;;;21.27;82.50;99717.10;105611;1253;74952;-71
2023/09/21 08:22:47;;;;;;;5.10;2.80;;;;;;;21.35;82.11;99718.98;105627;1254;82586;-70
2023/09/21 08:25:16;;;;;;;5.40;2.50;;;;;;;21.43;81.72;99715.25;105673;1253;72653;-70
2023/09/21 08:27:46;;;;;;;4.50;2.40;;;;;;;21.52;81.26;99716.39;105784;1256;69230;-70
2023/09/21 08:30:15;;;;;;;7.50;2.80;;;;;;;21.62;81.08;99713.27;105479;1253;69164;-68
2023/09/21 08:32:44;;;;;;;5.60;2.50;;;;;;;21.73;80.43;99713.75;105649;1255;72959;-70
2023/09/21 08:35:16;;;;;;;8.00;2.80;;;;;;;21.81;79.99;99711.68;105638;1257;83654;-69
2023/09/21 08:37:44;;;;;;;5.30;2.30;;;;;;;21.90;79.36;99707.86;105638;1256;73870;-69
2023/09/21 08:40:14;;;;;;;8.10;2.40;;;;;;;21.97;79.00;99706.78;105630;1253;69183;-69
2023/09/21 08:42:44;;;;;;;4.30;2.50;;;;;;;22.05;78.89;99707.09;105488;1256;69112;-69
2023/09/21 08:45:13;;;;;;;8.30;2.50;;;;;;;22.17;78.85;99702.94;105493;1254;74401;-72
2023/09/21 08:47:42;;;;;;;7.00;2.90;;;;;;;22.32;78.07;99701.17;105430;1255;82444;-71
2023/09/21 08:50:13;;;;;;;8.50;2.70;;;;;;;22.43;77.77;99697.35;105449;1253;72832;-72
2023/09/21 08:52:46;;;;;;;4.70;2.70;;;;;;;22.57;77.17;99695.17;105441;1253;69084;-73
2023/09/21 08:55:16;;;;;;;4.60;2.40;;;;;;;22.69;76.93;99691.64;105458;1257;69154;-66
2023/09/21 08:57:45;;;;;;;7.80;2.50;;;;;;;22.83;76.56;99689.52;105499;1257;72957;-69
2023/09/21 09:00:15;;;;;;;7.00;2.40;;;;;;;22.92;75.63;99691.77;105502;1253;83748;-72
2023/09/21 09:02:45;;;;;;;8.00;2.60;;;;;;;23.00;75.23;99690.33;105491;1253;72659;-72
2023/09/21 09:05:13;;;;;;;6.50;2.50;;;;;;;23.12;74.96;99689.17;105483;1253;69167;-71
2023/09/21 09:07:42;;;;;;;5.50;2.80;;;;;;;23.30;74.99;99690.88;105434;1257;69247;-71
2023/09/21 09:10:12;;;;;;;7.90;2.80;;;;;;;23.49;74.46;99689.36;105513;1254;73760;-72
2023/09/21 09:12:41;;;;;;;4.20;2.50;;;;;;;23.65;74.08;99688.16;105458;1253;82003;-72
2023/09/21 09:15:10;;;;;;;6.30;2.80;;;;;;;23.77;73.07;99689.83;105473;1254;73698;-72
2023/09/21 09:17:40;;;;;;;6.20;2.90;;;;;;;23.87;72.92;99687.67;105519;1253;69664;-71
2023/09/21 09:20:11;;;;;;;6.30;2.90;;;;;;;24.05;72.42;99692.96;105513;1257;69194;-71
2023/09/21 09:22:40;;;;;;;6.10;2.70;;;;;;;24.20;71.66;99688.41;105495;1253;74205;-71
2023/09/21 09:25:09;;;;;;;6.50;2.40;;;;;;;24.35;71.33;99682.52;105468;1254;83494;-72
2023/09/21 09:27:41;;;;;;;4.80;2.60;;;;;;;24.51;70.78;99678.90;105491;1254;73699;-71
2023/09/21 09:30:12;;;;;;;5.10;2.80;;;;;;;24.71;70.43;99673.27;105491;1253;69124;-71
2023/09/21 09:32:41;;;;;;;10.20;3.10;;;;;;;24.91;69.91;99672.57;105476;1257;69203;-72
2023/09/21 09:35:15;;;;;;;5.00;2.90;;;;;;;25.13;69.45;99671.45;105445;1255;75090;-71
2023/09/21 09:37:44;;;;;;;4.40;2.90;;;;;;;25.28;68.20;99673.16;105453;1253;83724;-72
2023/09/21 09:40:14;;;;;;;6.50;3.00;;;;;;;25.35;67.50;99670.47;105489;1257;73064;-72
2023/09/21 09:42:43;;;;;;;5.30;2.50;;;;;;;25.48;66.84;99670.85;105496;1257;69136;-72
2023/09/21 09:45:18;;;;;;;7.40;2.60;;;;;;;25.60;66.74;99665.85;105523;1254;69170;-72
2023/09/21 09:47:56;;;;;;;4.90;2.80;;;;;;;25.77;66.02;99663.13;105489;1253;74688;-71
2023/09/21 09:50:25;;;;;;;5.10;2.80;;;;;;;25.94;65.77;99665.42;105478;1253;82226;-71
2023/09/21 09:53:05;;;;;;;6.90;2.50;;;;;;;26.11;64.97;99659.77;105475;1257;72674;-72
2023/09/21 09:55:35;;;;;;;4.20;2.30;;;;;;;26.31;64.57;99655.60;105490;1257;69110;-73
2023/09/21 09:58:06;;;;;;;4.60;2.30;;;;;;;26.49;63.82;99653.82;105442;1257;69174;-72
2023/09/21 10:00:35;;;;;;;4.90;2.60;;;;;;;26.65;63.58;99647.68;105512;1256;74792;-73
2023/09/21 10:03:06;;;;;;;11.70;2.90;;;;;;;26.88;62.98;99646.64;105469;1257;83338;-73
2023/09/21 10:05:36;;;;;;;6.20;2.50;;;;;;;27.08;62.60;99645.48;105456;1253;72653;-72
2023/09/21 10:08:06;;;;;;;5.10;2.60;;;;;;;27.32;61.80;99646.63;105364;1257;69283;-72
2023/09/21 10:10:46;;;;;;;5.20;2.80;;;;;;;27.48;60.94;99642.33;105499;1253;69094;-73
2023/09/21 10:13:16;;;;;;;7.60;2.60;;;;;;;27.67;60.42;99635.92;105498;1253;74194;-72
2023/09/21 10:15:54;;;;;;;5.70;2.70;;;;;;;27.92;59.98;99636.12;105452;1257;83110;-72
2023/09/21 10:18:33;;;;;;;5.50;2.30;;;;;;;28.19;58.98;99636.98;105444;1253;73840;-72
2023/09/21 10:21:23;;;;;;;5.90;2.60;;;;;;;28.31;58.12;99630.31;105453;1254;69152;-72
2023/09/21 10:24:03;;;;;;;3.40;2.30;;;;;;;28.48;57.56;99625.59;105529;1253;69168;-71
2023/09/21 10:26:38;;;;;;;7.60;2.80;;;;;;;28.72;57.09;99627.10;105477;1253;73793;-72
2023/09/21 10:29:07;;;;;;;4.60;2.80;;;;;;;28.88;56.39;99620.98;105462;1256;83299;-72
2023/09/21 10:31:42;;;;;;;4.80;2.50;;;;;;;29.10;55.91;99618.95;105480;1257;73872;-72
2023/09/21 10:34:19;;;;;;;6.60;2.80;;;;;;;29.31;55.30;99617.56;105439;1253;69064;-72
2023/09/21 10:36:52;;;;;;;7.00;2.80;;;;;;;29.61;55.14;99613.64;105494;1253;69065;-72
2023/09/21 10:39:24;;;;;;;5.40;2.50;;;;;;;29.91;54.86;99612.05;105479;1253;73548;-73
2023/09/21 10:41:56;;;;;;;6.20;2.50;;;;;;;30.10;53.35;99607.30;105458;1253;82282;-72
2023/09/21 10:44:55;;;;;;;5.80;2.40;;;;;;;30.15;53.02;99604.20;105427;1254;73740;-72
2023/09/21 10:47:38;;;;;;;5.90;2.40;;;;;;;30.30;52.28;99601.69;105466;1254;69172;-72
2023/09/21 10:50:18;;;;;;;6.80;2.50;;;;;;;30.37;51.32;99599.00;105424;1253;69165;-72
2023/09/21 10:52:51;;;;;;;4.50;2.40;;;;;;;30.52;51.35;99593.91;105488;1253;74368;-72
2023/09/21 10:55:20;;;;;;;7.00;2.70;;;;;;;30.79;51.04;99594.31;105509;1257;83284;-70
2023/09/21 10:57:53;;;;;;;4.80;2.20;;;;;;;30.96;50.61;99596.92;105464;1253;73368;-70
2023/09/21 11:00:22;;;;;;;5.40;2.20;;;;;;;31.12;49.74;99596.69;105435;1257;69207;-70
2023/09/21 11:02:52;;;;;;;5.60;2.40;;;;;;;31.11;48.90;99597.86;105492;1253;69178;-69
2023/09/21 11:05:21;;;;;;;6.20;2.20;;;;;;;31.13;48.48;99598.11;105513;1253;74671;-69
2023/09/21 11:07:51;;;;;;;6.80;2.80;;;;;;;31.17;48.19;99589.98;105640;1254;83821;-68
2023/09/21 11:10:21;;;;;;;5.90;2.30;;;;;;;31.25;47.65;99592.04;105710;1253;74050;-68
2023/09/21 11:12:51;;;;;;;;;;;;;;;31.20;47.14;99588.76;105691;1257;69711;-69
2023/09/21 11:15:20;;;;;;;7.70;2.50;;;;;;;31.25;47.33;99582.92;105551;1257;69131;-68
2023/09/21 11:17:50;;;;;;;;;;;;;;;31.44;46.82;99576.23;105726;1253;74250;-68
2023/09/21 11:20:18;;;;;;;7.00;2.20;;;;;;;31.49;46.59;99577.27;105733;1253;82343;-70
2023/09/21 11:22:49;;;;;;;8.40;2.80;;;;;;;31.53;46.31;99569.46;105746;1253;74065;-69
2023/09/21 11:25:20;;;;;;;7.50;2.40;;;;;;;31.57;46.03;99566.28;105670;1253;69071;-70
2023/09/21 11:27:50;;;;;;;6.30;2.20;;;;;;;31.71;45.74;99567.98;105502;1253;69130;-69
2023/09/21 11:30:19;;;;;;;5.80;2.20;;;;;;;31.81;45.10;99568.39;105499;1256;73117;-69
2023/09/21 11:32:50;;;;;;;7.90;2.20;;;;;;;31.79;44.49;99565.74;105515;1253;83645;-70
2023/09/21 11:35:20;;;;;;;5.80;2.20;;;;;;;31.73;44.34;99562.89;105472;1257;72888;-69
2023/09/21 11:37:50;;;;;;;6.50;2.40;;;;;;;31.82;44.38;99557.19;105453;1253;69209;-69
2023/09/21 11:40:21;;;;;;;5.40;2.20;;;;;;;31.88;43.89;99555.69;105467;1253;69084;-70